createdAt,value
2018-04-29T00:00:07.984Z,13.50
2018-04-29T00:02:34.948Z,13.40
2018-04-29T00:05:01.139Z,13.40
2018-04-29T00:07:27.378Z,13.30
2018-04-29T00:09:53.791Z,13.30
2018-04-29T00:12:20.311Z,13.20
2018-04-29T00:14:47.264Z,13.10
2018-04-29T00:17:13.460Z,13.10
2018-04-29T00:19:39.659Z,13.00
2018-04-29T00:22:05.837Z,13.00
2018-04-29T00:24:32.019Z,12.90
2018-04-29T00:26:58.182Z,12.90
2018-04-29T00:29:25.123Z,12.80
2018-04-29T00:31:51.319Z,12.80
2018-04-29T00:34:17.490Z,12.80
2018-04-29T00:36:43.656Z,12.70
2018-04-29T00:39:10.614Z,12.60
2018-04-29T00:41:37.523Z,12.50
2018-04-29T00:44:03.709Z,12.50
2018-04-29T00:46:30.639Z,12.40
2018-04-29T00:48:56.828Z,12.40
2018-04-29T00:51:23.035Z,12.40
2018-04-29T00:53:49.973Z,12.30
2018-04-29T00:56:16.137Z,12.20
2018-04-29T00:58:43.051Z,12.20
2018-04-29T01:01:09.245Z,12.20
2018-04-29T01:03:35.484Z,12.10
2018-04-29T01:06:01.776Z,12.10
2018-04-29T01:08:27.976Z,12.00
2018-04-29T01:10:54.195Z,12.00
2018-04-29T01:13:21.109Z,11.90
2018-04-29T01:15:47.299Z,11.90
2018-04-29T01:18:14.248Z,11.80
2018-04-29T01:20:41.161Z,11.80
2018-04-29T01:23:07.380Z,11.80
2018-04-29T01:25:33.543Z,11.80
2018-04-29T01:27:59.719Z,11.80
2018-04-29T01:30:26.646Z,11.70
2018-04-29T01:32:52.891Z,11.70
2018-04-29T01:35:20.560Z,11.60
2018-04-29T01:37:46.731Z,11.60
2018-04-29T01:40:13.665Z,11.50
2018-04-29T01:42:39.859Z,11.50
2018-04-29T01:45:06.048Z,11.50
2018-04-29T01:47:33.719Z,11.40
2018-04-29T01:49:59.880Z,11.40
2018-04-29T01:52:26.816Z,11.40
2018-04-29T01:54:53.025Z,11.30
2018-04-29T01:57:19.218Z,11.30
2018-04-29T01:59:46.131Z,11.30
2018-04-29T02:02:12.324Z,11.20
2018-04-29T02:04:39.231Z,11.20
2018-04-29T02:07:05.415Z,11.20
2018-04-29T02:09:32.347Z,11.10
2018-04-29T02:11:58.510Z,11.10
2018-04-29T02:14:25.478Z,11.10
2018-04-29T02:16:51.708Z,11.10
2018-04-29T02:19:18.616Z,11.10
2018-04-29T02:21:44.792Z,11.20
2018-04-29T02:24:11.728Z,11.00
2018-04-29T02:26:37.889Z,11.00
2018-04-29T02:29:04.044Z,11.00
2018-04-29T02:31:30.972Z,10.90
2018-04-29T02:33:57.148Z,10.90
2018-04-29T02:36:23.358Z,10.90
2018-04-29T02:38:50.299Z,10.80
2018-04-29T02:41:16.484Z,10.80
2018-04-29T02:43:42.652Z,10.80
2018-04-29T02:46:08.843Z,10.70
2018-04-29T02:48:35.032Z,10.70
2018-04-29T02:51:01.196Z,10.70
2018-04-29T02:53:27.401Z,10.60
2018-04-29T02:56:00.545Z,10.60
2018-04-29T02:58:26.753Z,10.60
2018-04-29T03:00:52.944Z,10.50
2018-04-29T03:03:19.871Z,10.50
2018-04-29T03:05:46.045Z,10.40
2018-04-29T03:08:12.960Z,10.40
2018-04-29T03:10:39.137Z,10.40
2018-04-29T03:13:06.147Z,10.40
2018-04-29T03:15:32.331Z,10.40
2018-04-29T03:17:59.270Z,10.30
2018-04-29T03:20:25.460Z,10.30
2018-04-29T03:22:51.648Z,10.30
2018-04-29T03:25:18.586Z,10.20
2018-04-29T03:27:44.774Z,10.20
2018-04-29T03:30:11.684Z,10.10
2018-04-29T03:32:37.869Z,10.10
2018-04-29T03:35:04.076Z,10.30
2018-04-29T03:37:31.009Z,10.10
2018-04-29T03:39:57.187Z,10.10
2018-04-29T03:42:23.371Z,10.10
2018-04-29T03:44:49.564Z,10.00
2018-04-29T03:47:15.732Z,10.00
2018-04-29T03:49:41.919Z,10.00
2018-04-29T03:52:08.094Z,10.00
2018-04-29T03:54:34.252Z,10.00
2018-04-29T03:57:12.771Z,9.90
2018-04-29T03:59:52.123Z,9.90
2018-04-29T04:02:30.741Z,9.80
2018-04-29T04:04:56.837Z,9.80
2018-04-29T04:07:23.052Z,9.80
2018-04-29T04:09:49.373Z,9.80
2018-04-29T04:12:15.494Z,9.80
2018-04-29T04:14:41.709Z,9.70
2018-04-29T04:17:09.405Z,9.70
2018-04-29T04:19:35.600Z,9.70
2018-04-29T04:22:01.828Z,9.80
2018-04-29T04:24:28.059Z,9.80
2018-04-29T04:26:55.009Z,9.80
2018-04-29T04:29:21.234Z,9.80
2018-04-29T04:31:47.457Z,9.90
2018-04-29T04:34:13.698Z,9.90
2018-04-29T04:36:39.868Z,10.00
2018-04-29T04:39:06.080Z,10.00
2018-04-29T04:41:32.299Z,10.10
2018-04-29T04:43:58.468Z,10.10
2018-04-29T04:46:24.714Z,10.20
2018-04-29T04:48:50.937Z,10.30
2018-04-29T04:51:17.184Z,10.30
2018-04-29T04:53:44.125Z,10.50
2018-04-29T04:56:10.326Z,10.50
2018-04-29T04:58:36.527Z,10.60
2018-04-29T05:01:03.492Z,10.80
2018-04-29T05:03:29.675Z,10.70
2018-04-29T05:05:55.846Z,11.00
2018-04-29T05:08:22.830Z,11.00
2018-04-29T05:10:49.115Z,11.00
2018-04-29T05:13:15.288Z,11.10
2018-04-29T05:15:41.492Z,11.20
2018-04-29T05:18:07.666Z,11.30
2018-04-29T05:20:34.580Z,11.40
2018-04-29T05:23:00.767Z,11.40
2018-04-29T05:25:27.731Z,11.60
2018-04-29T05:27:53.952Z,11.60
2018-04-29T05:30:20.903Z,11.70
2018-04-29T05:32:47.840Z,11.80
2018-04-29T05:35:14.027Z,11.80
2018-04-29T05:37:40.217Z,11.90
2018-04-29T05:40:06.403Z,11.90
2018-04-29T05:42:32.597Z,12.00
2018-04-29T05:44:58.783Z,12.10
2018-04-29T05:47:25.037Z,12.20
2018-04-29T05:49:51.250Z,12.30
2018-04-29T05:52:18.218Z,12.60
2018-04-29T05:54:44.404Z,12.60
2018-04-29T05:57:10.585Z,12.70
2018-04-29T05:59:37.503Z,13.00
2018-04-29T06:02:03.686Z,13.00
2018-04-29T06:04:30.591Z,13.40
2018-04-29T06:06:56.842Z,13.30
2018-04-29T06:09:23.037Z,13.50
2018-04-29T06:11:49.239Z,13.50
2018-04-29T06:14:16.932Z,13.70
2018-04-29T06:16:43.852Z,13.80
2018-04-29T06:19:10.027Z,13.80
2018-04-29T06:21:37.182Z,13.90
2018-04-29T06:24:04.160Z,14.00
2018-04-29T06:26:30.343Z,14.00
2018-04-29T06:28:56.544Z,14.10
2018-04-29T06:31:22.776Z,14.10
2018-04-29T06:33:49.006Z,14.10
2018-04-29T06:36:15.968Z,14.20
2018-04-29T06:38:42.953Z,14.20
2018-04-29T06:41:09.106Z,14.20
2018-04-29T06:43:35.293Z,14.20
2018-04-29T06:46:01.680Z,14.20
2018-04-29T06:48:27.909Z,14.20
2018-04-29T06:50:54.209Z,14.20
2018-04-29T06:53:21.156Z,14.20
2018-04-29T06:55:47.405Z,14.20
2018-04-29T06:58:14.367Z,14.30
2018-04-29T07:00:40.575Z,14.30
2018-04-29T07:03:06.752Z,14.30
2018-04-29T07:05:33.711Z,14.30
2018-04-29T07:08:00.713Z,14.40
2018-04-29T07:10:26.940Z,14.40
2018-04-29T07:12:53.265Z,14.40
2018-04-29T07:15:19.472Z,14.40
2018-04-29T07:17:45.672Z,14.40
2018-04-29T07:20:11.864Z,14.40
2018-04-29T07:22:38.076Z,14.30
2018-04-29T07:25:04.315Z,14.30
2018-04-29T07:27:31.330Z,14.30
2018-04-29T07:29:57.504Z,14.30
2018-04-29T07:32:23.765Z,14.30
2018-04-29T07:34:49.968Z,14.30
2018-04-29T07:37:23.070Z,14.20
2018-04-29T07:39:49.285Z,14.20
2018-04-29T07:42:16.217Z,14.20
2018-04-29T07:44:43.124Z,14.20
2018-04-29T07:47:09.280Z,14.20
2018-04-29T07:49:35.471Z,14.20
2018-04-29T07:52:01.705Z,14.20
2018-04-29T07:54:27.883Z,14.20
2018-04-29T07:56:54.144Z,14.30
2018-04-29T07:59:27.409Z,14.30
2018-04-29T08:01:53.618Z,14.30
2018-04-29T08:04:19.791Z,14.30
2018-04-29T08:06:45.961Z,14.30
2018-04-29T08:09:12.177Z,14.30
2018-04-29T08:11:38.355Z,14.20
2018-04-29T08:14:04.527Z,14.20
2018-04-29T08:16:31.481Z,14.20
2018-04-29T08:18:58.401Z,14.20
2018-04-29T08:21:24.608Z,14.10
2018-04-29T08:23:50.847Z,14.20
2018-04-29T08:26:17.024Z,14.20
2018-04-29T08:28:43.182Z,14.20
2018-04-29T08:31:09.369Z,14.30
2018-04-29T08:33:35.537Z,14.30
2018-04-29T08:36:01.715Z,14.40
2018-04-29T08:38:28.715Z,14.60
2018-04-29T08:40:54.951Z,14.60
2018-04-29T08:43:21.176Z,14.70
2018-04-29T08:45:47.338Z,14.70
2018-04-29T08:48:13.505Z,14.80
2018-04-29T08:50:39.677Z,14.70
2018-04-29T08:53:06.682Z,15.00
2018-04-29T08:55:32.855Z,15.00
2018-04-29T08:57:59.039Z,15.10
2018-04-29T09:00:26.114Z,15.20
2018-04-29T09:02:52.376Z,15.40
2018-04-29T09:05:20.032Z,15.60
2018-04-29T09:07:46.223Z,15.60
2018-04-29T09:10:13.177Z,15.80
2018-04-29T09:12:39.339Z,15.80
2018-04-29T09:15:05.539Z,15.90
2018-04-29T09:17:31.809Z,16.00
2018-04-29T09:19:57.937Z,16.10
2018-04-29T09:22:24.971Z,16.20
2018-04-29T09:24:51.268Z,16.10
2018-04-29T09:27:17.448Z,16.20
2018-04-29T09:29:43.627Z,16.10
2018-04-29T09:32:09.862Z,16.10
2018-04-29T09:34:36.787Z,16.10
2018-04-29T09:37:03.067Z,16.10
2018-04-29T09:39:30.008Z,16.00
2018-04-29T09:41:56.961Z,16.00
2018-04-29T09:44:23.176Z,16.00
2018-04-29T09:46:50.175Z,16.00
2018-04-29T09:49:16.373Z,16.00
2018-04-29T09:51:42.579Z,16.00
2018-04-29T09:54:08.760Z,16.00
2018-04-29T09:56:34.933Z,15.90
2018-04-29T09:59:01.887Z,15.90
2018-04-29T10:01:28.139Z,15.90
2018-04-29T10:03:54.324Z,15.80
2018-04-29T10:06:22.017Z,15.70
2018-04-29T10:08:48.936Z,15.70
2018-04-29T10:11:15.134Z,15.60
2018-04-29T10:13:41.331Z,15.60
2018-04-29T10:16:14.496Z,15.50
2018-04-29T10:18:40.707Z,15.50
2018-04-29T10:21:07.652Z,15.40
2018-04-29T10:23:34.580Z,15.30
2018-04-29T10:26:00.760Z,15.30
2018-04-29T10:28:27.671Z,15.20
2018-04-29T10:30:53.878Z,15.20
2018-04-29T10:33:20.065Z,15.20
2018-04-29T10:35:46.261Z,15.10
2018-04-29T10:38:12.435Z,15.10
2018-04-29T10:40:38.613Z,15.10
2018-04-29T10:43:05.587Z,15.10
2018-04-29T10:45:31.803Z,15.10
2018-04-29T10:47:58.768Z,15.20
2018-04-29T10:50:24.968Z,15.10
2018-04-29T10:52:51.944Z,15.10
2018-04-29T10:55:18.167Z,15.10
2018-04-29T10:57:44.352Z,15.10
2018-04-29T11:00:11.303Z,15.10
2018-04-29T11:02:38.239Z,15.10
2018-04-29T11:05:04.443Z,15.10
2018-04-29T11:07:30.856Z,15.10
2018-04-29T11:09:57.093Z,15.20
2018-04-29T11:12:24.017Z,15.30
2018-04-29T11:14:51.760Z,15.40
2018-04-29T11:17:17.942Z,15.40
2018-04-29T11:19:44.119Z,15.50
2018-04-29T11:22:10.338Z,15.60
2018-04-29T11:24:36.497Z,15.70
2018-04-29T11:27:02.712Z,15.80
2018-04-29T11:29:29.660Z,16.00
2018-04-29T11:31:56.587Z,16.10
2018-04-29T11:34:22.772Z,16.10
2018-04-29T11:36:49.701Z,16.30
2018-04-29T11:39:15.895Z,16.30
2018-04-29T11:41:42.076Z,16.40
2018-04-29T11:44:09.757Z,16.50
2018-04-29T11:46:35.943Z,16.60
2018-04-29T11:49:02.126Z,16.60
2018-04-29T11:51:29.076Z,16.80
2018-04-29T11:53:55.256Z,16.80
2018-04-29T11:56:22.173Z,17.10
2018-04-29T11:58:48.393Z,17.10
2018-04-29T12:01:14.575Z,17.20
2018-04-29T12:03:40.765Z,17.20
2018-04-29T12:06:06.955Z,17.40
2018-04-29T12:08:33.874Z,17.50
2018-04-29T12:11:00.040Z,17.50
2018-04-29T12:13:26.994Z,17.70
2018-04-29T12:15:53.205Z,17.70
2018-04-29T12:18:19.391Z,17.80
2018-04-29T12:20:46.307Z,18.10
2018-04-29T12:23:12.487Z,18.10
2018-04-29T12:25:38.686Z,18.20
2018-04-29T12:28:04.892Z,18.40
2018-04-29T12:30:31.052Z,18.50
2018-04-29T12:32:57.256Z,18.60
2018-04-29T12:35:24.185Z,18.90
2018-04-29T12:37:51.128Z,19.10
2018-04-29T12:40:17.305Z,19.00
2018-04-29T12:42:43.533Z,19.20
2018-04-29T12:45:11.017Z,19.40
2018-04-29T12:47:37.213Z,19.40
2018-04-29T12:50:03.454Z,19.60
2018-04-29T12:52:29.619Z,19.70
2018-04-29T12:54:56.696Z,20.00
2018-04-29T12:57:22.923Z,19.90
2018-04-29T12:59:49.859Z,20.20
2018-04-29T13:02:16.803Z,20.30
2018-04-29T13:04:43.008Z,20.30
2018-04-29T13:07:09.176Z,20.40
2018-04-29T13:09:35.372Z,20.50
2018-04-29T13:12:01.597Z,20.50
2018-04-29T13:14:28.514Z,20.60
2018-04-29T13:16:54.723Z,20.60
2018-04-29T13:19:20.929Z,20.60
2018-04-29T13:21:47.222Z,20.60
2018-04-29T13:24:13.341Z,20.60
2018-04-29T13:26:39.528Z,20.70
2018-04-29T13:29:06.463Z,20.80
2018-04-29T13:31:32.639Z,20.80
2018-04-29T13:33:59.597Z,20.90
2018-04-29T13:36:25.801Z,20.90
2018-04-29T13:38:51.992Z,20.90
2018-04-29T13:41:18.998Z,21.10
2018-04-29T13:43:45.175Z,21.10
2018-04-29T13:46:11.373Z,21.10
2018-04-29T13:48:37.597Z,21.20
2018-04-29T13:51:03.788Z,21.40
2018-04-29T13:53:29.977Z,21.50
2018-04-29T13:55:56.189Z,21.50
2018-04-29T13:58:23.131Z,21.70
2018-04-29T14:00:50.064Z,21.70
2018-04-29T14:03:16.329Z,21.70
2018-04-29T14:05:42.448Z,21.80
2018-04-29T14:08:10.185Z,21.80
2018-04-29T14:10:36.433Z,21.80
2018-04-29T14:13:03.414Z,21.80
2018-04-29T14:15:29.635Z,21.80
2018-04-29T14:17:55.847Z,21.80
2018-04-29T14:20:22.045Z,21.80
2018-04-29T14:22:48.228Z,21.80
2018-04-29T14:25:14.419Z,21.80
2018-04-29T14:27:40.605Z,21.80
2018-04-29T14:30:06.801Z,21.80
2018-04-29T14:32:32.999Z,21.80
2018-04-29T14:34:59.187Z,21.80
2018-04-29T14:37:26.123Z,21.80
2018-04-29T14:39:52.387Z,21.80
2018-04-29T14:42:18.563Z,21.80
2018-04-29T14:44:44.743Z,21.80
2018-04-29T14:47:10.940Z,21.90
2018-04-29T14:49:37.253Z,21.90
2018-04-29T14:52:03.353Z,22.00
2018-04-29T14:54:29.548Z,22.00
2018-04-29T14:56:56.459Z,22.20
2018-04-29T14:59:22.665Z,22.20
2018-04-29T15:01:48.883Z,22.30
2018-04-29T15:04:15.811Z,22.50
2018-04-29T15:06:42.003Z,22.50
2018-04-29T15:09:08.193Z,22.50
2018-04-29T15:11:34.371Z,22.50
2018-04-29T15:14:01.385Z,22.50
2018-04-29T15:16:27.656Z,22.50
2018-04-29T15:18:58.987Z,22.50
2018-04-29T15:21:25.177Z,22.60
2018-04-29T15:23:51.455Z,22.50
2018-04-29T15:26:17.640Z,22.60
2018-04-29T15:28:43.825Z,22.60
2018-04-29T15:31:10.020Z,22.50
2018-04-29T15:33:36.956Z,22.40
2018-04-29T15:36:03.880Z,22.40
2018-04-29T15:38:30.091Z,22.40
2018-04-29T15:40:56.308Z,22.30
2018-04-29T15:43:23.288Z,22.20
2018-04-29T15:45:49.587Z,22.20
2018-04-29T15:48:16.539Z,22.00
2018-04-29T15:50:42.742Z,22.00
2018-04-29T15:53:08.965Z,22.00
2018-04-29T15:55:35.158Z,21.90
2018-04-29T15:58:01.432Z,21.80
2018-04-29T16:00:27.620Z,21.70
2018-04-29T16:02:53.840Z,21.60
2018-04-29T16:05:20.045Z,21.50
2018-04-29T16:07:46.274Z,21.50
2018-04-29T16:10:13.208Z,21.40
2018-04-29T16:12:39.395Z,21.30
2018-04-29T16:15:05.620Z,21.30
2018-04-29T16:17:32.549Z,21.20
2018-04-29T16:19:58.786Z,21.20
2018-04-29T16:22:25.086Z,21.20
2018-04-29T16:24:51.310Z,21.20
2018-04-29T16:27:17.509Z,21.20
2018-04-29T16:29:43.739Z,21.10
2018-04-29T16:32:10.085Z,21.20
2018-04-29T16:34:37.031Z,21.20
2018-04-29T16:37:03.254Z,21.20
2018-04-29T16:39:29.593Z,21.30
2018-04-29T16:41:56.661Z,21.30
2018-04-29T16:44:22.868Z,21.30
2018-04-29T16:46:49.112Z,21.30
2018-04-29T16:49:15.325Z,21.40
2018-04-29T16:51:41.637Z,21.40
2018-04-29T16:54:07.815Z,21.40
2018-04-29T16:56:34.735Z,21.40
2018-04-29T16:59:00.947Z,21.40
2018-04-29T17:01:27.456Z,21.40
2018-04-29T17:03:54.383Z,21.30
2018-04-29T17:06:20.583Z,21.30
2018-04-29T17:08:46.792Z,21.30
2018-04-29T17:11:12.999Z,21.20
2018-04-29T17:13:39.209Z,21.20
2018-04-29T17:16:05.419Z,21.10
2018-04-29T17:18:31.639Z,21.10
2018-04-29T17:20:57.839Z,21.00
2018-04-29T17:23:24.057Z,20.90
2018-04-29T17:25:50.254Z,20.80
2018-04-29T17:28:16.469Z,20.70
2018-04-29T17:30:42.682Z,20.50
2018-04-29T17:33:08.883Z,20.60
2018-04-29T17:35:35.854Z,20.40
2018-04-29T17:38:02.148Z,20.40
2018-04-29T17:40:29.015Z,20.20
2018-04-29T17:42:55.269Z,20.20
2018-04-29T17:45:22.283Z,20.20
2018-04-29T17:47:48.505Z,20.10
2018-04-29T17:50:14.792Z,20.10
2018-04-29T17:52:40.971Z,20.00
2018-04-29T17:55:07.165Z,20.00
2018-04-29T17:57:33.362Z,19.90
2018-04-29T17:59:59.583Z,19.80
2018-04-29T18:02:25.808Z,19.80
2018-04-29T18:04:52.038Z,19.70
2018-04-29T18:07:18.212Z,19.70
2018-04-29T18:09:44.364Z,19.60
2018-04-29T18:12:11.311Z,19.50
2018-04-29T18:14:38.230Z,19.50
2018-04-29T18:17:05.699Z,19.40
2018-04-29T18:19:32.145Z,19.60
2018-04-29T18:21:58.353Z,19.40
2018-04-29T18:24:24.516Z,19.30
2018-04-29T18:26:51.470Z,19.20
2018-04-29T18:29:17.632Z,19.00
2018-04-29T18:31:43.785Z,19.10
2018-04-29T18:34:09.945Z,19.00
2018-04-29T18:36:36.115Z,18.90
2018-04-29T18:39:02.281Z,18.80
2018-04-29T18:41:29.218Z,18.70
2018-04-29T18:43:55.365Z,18.70
2018-04-29T18:46:22.264Z,18.50
2018-04-29T18:48:48.481Z,18.50
2018-04-29T18:51:14.773Z,18.50
2018-04-29T18:53:41.618Z,18.40
2018-04-29T18:56:07.830Z,18.30
2018-04-29T18:58:34.744Z,18.20
2018-04-29T19:01:00.901Z,18.20
2018-04-29T19:03:27.832Z,18.20
2018-04-29T19:05:57.967Z,18.10
2018-04-29T19:08:24.948Z,18.10
2018-04-29T19:10:51.097Z,18.10
2018-04-29T19:13:17.256Z,18.10
2018-04-29T19:15:43.455Z,18.00
2018-04-29T19:18:09.636Z,18.00
2018-04-29T19:20:36.539Z,17.90
2018-04-29T19:23:02.697Z,17.90
2018-04-29T19:25:29.620Z,17.80
2018-04-29T19:27:55.818Z,17.90
2018-04-29T19:30:21.973Z,17.80
2018-04-29T19:32:48.136Z,17.70
2018-04-29T19:35:15.020Z,17.60
2018-04-29T19:37:41.165Z,17.60
2018-04-29T19:40:07.375Z,17.70
2018-04-29T19:42:33.525Z,17.50
2018-04-29T19:44:59.669Z,17.50
2018-04-29T19:47:25.965Z,17.40
2018-04-29T19:49:52.112Z,17.30
2018-04-29T19:52:18.265Z,17.40
2018-04-29T19:54:45.169Z,17.20
2018-04-29T19:57:11.322Z,17.10
2018-04-29T19:59:37.480Z,17.10
2018-04-29T20:02:03.678Z,17.10
2018-04-29T20:04:30.691Z,16.90
2018-04-29T20:06:56.861Z,16.90
2018-04-29T20:09:23.798Z,16.80
2018-04-29T20:11:50.745Z,16.70
2018-04-29T20:14:16.889Z,16.70
2018-04-29T20:16:43.005Z,16.70
2018-04-29T20:19:09.123Z,16.60
2018-04-29T20:21:35.214Z,16.50
2018-04-29T20:24:01.361Z,16.40
2018-04-29T20:26:27.475Z,16.30
2018-04-29T20:28:53.622Z,16.30
2018-04-29T20:31:20.522Z,16.10
2018-04-29T20:33:46.650Z,16.10
2018-04-29T20:36:12.780Z,16.10
2018-04-29T20:38:38.913Z,16.00
2018-04-29T20:41:05.047Z,16.00
2018-04-29T20:43:31.164Z,15.90
2018-04-29T20:45:57.412Z,15.80
2018-04-29T20:48:23.602Z,15.70
2018-04-29T20:50:50.456Z,15.70
2018-04-29T20:53:16.665Z,15.70
2018-04-29T20:55:43.525Z,15.70
2018-04-29T20:58:09.686Z,15.60
2018-04-29T21:00:35.885Z,15.70
2018-04-29T21:03:01.965Z,15.60
2018-04-29T21:05:28.849Z,15.60
2018-04-29T21:07:55.814Z,15.60
2018-04-29T21:10:21.965Z,15.60
2018-04-29T21:12:48.090Z,15.60
2018-04-29T21:15:14.241Z,15.60
2018-04-29T21:17:41.101Z,15.50
2018-04-29T21:20:07.225Z,15.50
2018-04-29T21:22:33.449Z,15.40
2018-04-29T21:24:59.629Z,15.40
2018-04-29T21:27:25.840Z,15.30
2018-04-29T21:29:51.996Z,15.30
2018-04-29T21:32:18.138Z,15.20
2018-04-29T21:34:44.321Z,15.10
2018-04-29T21:37:10.494Z,15.10
2018-04-29T21:39:37.416Z,14.90
2018-04-29T21:42:03.505Z,14.90
2018-04-29T21:44:29.635Z,14.80
2018-04-29T21:46:55.834Z,14.70
2018-04-29T21:49:22.009Z,14.70
2018-04-29T21:51:48.983Z,14.60
2018-04-29T21:54:15.100Z,14.50
2018-04-29T21:56:41.289Z,14.50
2018-04-29T21:59:07.457Z,14.40
2018-04-29T22:01:33.569Z,14.50
2018-04-29T22:03:59.704Z,14.30
2018-04-29T22:06:25.834Z,14.30
2018-04-29T22:08:51.939Z,14.20
2018-04-29T22:11:18.066Z,14.20
2018-04-29T22:13:44.219Z,14.20
2018-04-29T22:16:10.349Z,14.10
2018-04-29T22:18:36.501Z,14.10
2018-04-29T22:21:02.706Z,14.20
2018-04-29T22:23:28.845Z,13.90
2018-04-29T22:25:54.948Z,14.00
2018-04-29T22:28:21.809Z,13.90
2018-04-29T22:30:47.994Z,13.90
2018-04-29T22:33:14.102Z,13.90
2018-04-29T22:35:41.055Z,13.80
2018-04-29T22:38:07.973Z,13.80
2018-04-29T22:40:34.943Z,13.80
2018-04-29T22:43:01.081Z,13.80
2018-04-29T22:45:27.213Z,13.70
2018-04-29T22:47:53.322Z,13.70
2018-04-29T22:50:20.289Z,13.60
2018-04-29T22:52:46.410Z,13.60
2018-04-29T22:55:12.562Z,13.60
2018-04-29T22:57:39.531Z,13.50
2018-04-29T23:00:05.657Z,13.50
2018-04-29T23:02:32.506Z,13.50
2018-04-29T23:07:55.434Z,13.50
2018-04-29T23:10:21.653Z,13.40
2018-04-29T23:12:47.855Z,13.40
2018-04-29T23:15:14.029Z,13.40
2018-04-29T23:17:40.214Z,13.40
2018-04-29T23:20:06.365Z,13.30
2018-04-29T23:22:32.568Z,13.30
2018-04-29T23:24:58.798Z,13.30
2018-04-29T23:27:25.678Z,13.30
2018-04-29T23:29:51.841Z,13.30
2018-04-29T23:32:18.025Z,13.30
2018-04-29T23:34:44.198Z,13.30
2018-04-29T23:37:10.354Z,13.40
2018-04-29T23:39:37.250Z,13.40
2018-04-29T23:42:03.471Z,13.40
2018-04-29T23:44:29.625Z,13.50
2018-04-29T23:46:55.800Z,13.50
2018-04-29T23:49:21.977Z,13.40
2018-04-29T23:51:48.211Z,13.60
2018-04-29T23:54:14.432Z,13.50
2018-04-29T23:56:40.617Z,13.40
2018-04-29T23:59:06.800Z,13.40
